createdAt,value
2022-12-29T00:00:46.844Z,9.85
2022-12-29T00:05:55.515Z,9.86
2022-12-29T00:10:59.779Z,9.82
2022-12-29T00:16:01.208Z,9.82
2022-12-29T00:21:21.460Z,9.76
2022-12-29T00:26:41.659Z,9.75
2022-12-29T00:32:01.761Z,9.77
2022-12-29T00:37:03.219Z,9.82
2022-12-29T00:42:41.341Z,9.75
2022-12-29T00:47:42.910Z,9.67
2022-12-29T00:52:44.394Z,9.72
2022-12-29T00:57:45.804Z,9.79
2022-12-29T01:02:47.320Z,9.79
2022-12-29T01:07:48.813Z,9.80
2022-12-29T01:12:51.272Z,9.75
2022-12-29T01:17:52.905Z,9.81
2022-12-29T01:22:54.480Z,9.77
2022-12-29T01:27:55.905Z,9.72
2022-12-29T01:32:57.328Z,9.74
2022-12-29T01:37:59.122Z,9.60
2022-12-29T01:43:00.599Z,9.56
2022-12-29T01:48:06.247Z,9.56
2022-12-29T01:53:17.346Z,9.50
2022-12-29T01:58:23.535Z,9.61
2022-12-29T02:03:27.772Z,9.50
2022-12-29T02:08:30.314Z,9.49
2022-12-29T02:13:31.870Z,9.62
2022-12-29T02:19:01.123Z,9.60
2022-12-29T02:24:30.248Z,9.48
2022-12-29T02:30:03.339Z,9.28
2022-12-29T02:35:34.463Z,9.02
2022-12-29T02:40:48.535Z,9.18
2022-12-29T02:46:10.725Z,9.25
2022-12-29T02:51:21.176Z,9.33
2022-12-29T02:56:22.789Z,9.15
2022-12-29T03:01:37.419Z,9.14
2022-12-29T03:07:12.213Z,9.17
2022-12-29T03:12:54.195Z,9.17
2022-12-29T03:18:02.518Z,9.11
2022-12-29T03:23:07.804Z,9.05
2022-12-29T03:28:22.948Z,8.92
2022-12-29T03:33:27.934Z,8.93
2022-12-29T03:38:40.927Z,9.05
2022-12-29T03:43:42.454Z,9.21
2022-12-29T03:48:43.896Z,9.04
2022-12-29T03:53:45.326Z,9.02
2022-12-29T03:58:46.889Z,9.07
2022-12-29T04:03:48.431Z,9.17
2022-12-29T04:08:49.861Z,9.12
2022-12-29T04:13:51.263Z,9.12
2022-12-29T04:18:52.695Z,9.22
2022-12-29T04:23:54.107Z,9.23
2022-12-29T04:28:55.655Z,9.14
2022-12-29T04:33:58.305Z,9.26
2022-12-29T04:38:59.804Z,9.19
2022-12-29T04:44:01.199Z,9.11
2022-12-29T04:49:08.869Z,9.12
2022-12-29T04:54:10.432Z,9.15
2022-12-29T04:59:11.856Z,8.98
2022-12-29T05:04:13.291Z,8.98
2022-12-29T05:09:15.675Z,8.87
2022-12-29T05:14:17.063Z,8.92
2022-12-29T05:19:22.556Z,8.92
2022-12-29T05:24:24.133Z,8.82
2022-12-29T05:29:25.692Z,8.69
2022-12-29T05:34:27.170Z,8.56
2022-12-29T05:39:28.538Z,8.58
2022-12-29T05:44:29.945Z,8.55
2022-12-29T05:49:31.412Z,8.44
2022-12-29T05:54:32.835Z,8.40
2022-12-29T05:59:34.277Z,8.34
2022-12-29T06:04:35.713Z,8.36
2022-12-29T06:09:37.129Z,8.43
2022-12-29T06:14:38.565Z,8.57
2022-12-29T06:19:40.243Z,8.74
2022-12-29T06:24:41.664Z,8.59
2022-12-29T06:29:43.827Z,8.64
2022-12-29T06:34:45.779Z,8.45
2022-12-29T06:39:47.274Z,8.53
2022-12-29T06:44:48.719Z,8.65
2022-12-29T06:49:50.947Z,8.56
2022-12-29T06:54:52.549Z,8.49
2022-12-29T06:59:56.604Z,8.56
2022-12-29T07:04:58.005Z,8.46
2022-12-29T07:09:59.392Z,8.57
2022-12-29T07:15:00.871Z,8.49
2022-12-29T07:20:02.349Z,8.49
2022-12-29T07:25:04.329Z,8.71
2022-12-29T07:30:06.243Z,8.55
2022-12-29T07:35:08.327Z,8.70
2022-12-29T07:40:10.844Z,8.77
2022-12-29T07:45:12.473Z,8.67
2022-12-29T07:50:14.000Z,8.59
2022-12-29T07:55:16.754Z,8.65
2022-12-29T08:00:18.702Z,8.70
2022-12-29T08:05:20.465Z,8.69
2022-12-29T08:10:21.862Z,8.39
2022-12-29T08:15:28.652Z,8.44
2022-12-29T08:20:36.336Z,8.48
2022-12-29T08:25:37.789Z,8.65
2022-12-29T08:30:39.306Z,8.63
2022-12-29T08:35:40.749Z,8.67
2022-12-29T08:40:42.919Z,8.64
2022-12-29T08:45:44.470Z,8.76
2022-12-29T08:50:47.118Z,8.85
2022-12-29T08:56:00.808Z,8.83
2022-12-29T09:01:05.935Z,8.93
2022-12-29T09:06:08.059Z,8.85
2022-12-29T09:11:12.325Z,8.80
2022-12-29T09:16:14.607Z,8.73
2022-12-29T09:21:16.411Z,8.72
2022-12-29T09:26:17.870Z,8.74
2022-12-29T09:31:19.441Z,8.68
2022-12-29T09:36:24.223Z,8.85
2022-12-29T09:41:30.994Z,8.80
2022-12-29T09:46:38.389Z,8.74
2022-12-29T09:51:44.225Z,8.57
2022-12-29T09:56:46.988Z,8.49
2022-12-29T10:02:01.287Z,8.32
2022-12-29T10:07:30.293Z,8.19
2022-12-29T10:12:57.940Z,8.17
2022-12-29T10:18:05.101Z,8.09
2022-12-29T10:23:30.555Z,7.95
2022-12-29T10:28:51.858Z,7.95
2022-12-29T10:33:59.794Z,7.94
2022-12-29T10:39:25.168Z,7.98
2022-12-29T10:44:31.970Z,7.88
2022-12-29T10:49:39.491Z,7.89
2022-12-29T10:54:56.053Z,7.90
2022-12-29T10:59:58.786Z,7.89
2022-12-29T11:05:28.281Z,7.96
2022-12-29T11:10:44.337Z,8.00
2022-12-29T11:15:50.833Z,8.05
2022-12-29T11:21:00.554Z,8.16
2022-12-29T11:26:11.240Z,8.12
2022-12-29T11:31:18.415Z,8.04
2022-12-29T11:36:25.606Z,8.08
2022-12-29T11:41:32.357Z,8.10
2022-12-29T11:46:34.629Z,8.18
2022-12-29T11:51:46.009Z,8.21
2022-12-29T11:56:49.922Z,8.31
2022-12-29T12:01:51.732Z,8.28
2022-12-29T12:07:02.390Z,8.36
2022-12-29T12:12:10.778Z,8.43
2022-12-29T12:17:20.151Z,8.58
2022-12-29T12:22:41.889Z,8.54
2022-12-29T12:27:47.945Z,8.52
2022-12-29T12:33:33.635Z,8.72
2022-12-29T12:38:45.842Z,8.86
2022-12-29T12:43:52.555Z,9.02
2022-12-29T12:48:57.222Z,9.01
2022-12-29T12:54:16.746Z,9.03
2022-12-29T12:59:53.732Z,8.85
2022-12-29T13:05:10.124Z,8.85
2022-12-29T13:10:20.858Z,8.76
2022-12-29T13:15:48.251Z,8.71
2022-12-29T13:21:01.481Z,8.68
2022-12-29T13:26:32.150Z,8.65
2022-12-29T13:31:48.036Z,8.61
2022-12-29T13:36:55.481Z,8.66
2022-12-29T13:41:57.891Z,8.67
2022-12-29T13:47:06.014Z,8.63
2022-12-29T13:52:29.841Z,8.63
2022-12-29T13:58:06.357Z,8.63
2022-12-29T14:03:44.639Z,8.64
2022-12-29T14:08:47.613Z,8.63
2022-12-29T14:13:49.880Z,8.54
2022-12-29T14:18:51.793Z,8.48
2022-12-29T14:23:54.909Z,8.35
2022-12-29T14:29:04.610Z,8.29
2022-12-29T14:34:07.037Z,8.16
2022-12-29T14:39:39.556Z,7.83
2022-12-29T14:44:49.028Z,7.66
2022-12-29T14:49:50.766Z,7.61
2022-12-29T14:54:55.196Z,7.58
2022-12-29T15:00:26.393Z,7.60
2022-12-29T15:05:34.842Z,7.64
2022-12-29T15:10:44.818Z,7.65
2022-12-29T15:15:46.416Z,7.61
2022-12-29T15:20:52.751Z,7.62
2022-12-29T15:25:58.655Z,7.64
2022-12-29T15:31:09.108Z,7.59
2022-12-29T15:36:14.197Z,7.64
2022-12-29T15:42:01.229Z,7.60
2022-12-29T15:47:12.695Z,7.63
2022-12-29T15:52:19.539Z,7.60
2022-12-29T15:57:29.222Z,7.66
2022-12-29T16:02:31.531Z,7.61
2022-12-29T16:07:41.282Z,7.69
2022-12-29T16:12:45.448Z,7.70
2022-12-29T16:17:54.322Z,7.64
2022-12-29T16:22:58.519Z,7.61
2022-12-29T16:28:00.957Z,7.58
2022-12-29T16:33:06.137Z,7.49
2022-12-29T16:38:13.889Z,7.41
2022-12-29T16:43:27.574Z,7.33
2022-12-29T16:48:46.745Z,7.28
2022-12-29T16:53:52.079Z,7.27
2022-12-29T16:59:06.945Z,7.24
2022-12-29T17:04:13.796Z,7.23
2022-12-29T17:09:21.196Z,7.19
2022-12-29T17:14:43.271Z,7.09
2022-12-29T17:19:59.725Z,7.09
2022-12-29T17:25:03.617Z,7.08
2022-12-29T17:30:32.875Z,6.92
2022-12-29T17:35:43.695Z,6.92
2022-12-29T17:40:45.766Z,7.07
2022-12-29T17:45:53.010Z,6.97
2022-12-29T17:50:54.697Z,6.97
2022-12-29T17:55:57.615Z,6.93
2022-12-29T18:01:01.631Z,6.81
2022-12-29T18:06:08.536Z,6.78
2022-12-29T18:11:22.584Z,6.67
2022-12-29T18:16:26.600Z,6.70
2022-12-29T18:21:28.127Z,6.74
2022-12-29T18:26:31.862Z,6.69
2022-12-29T18:31:37.226Z,6.76
2022-12-29T18:36:38.753Z,6.77
2022-12-29T18:41:40.609Z,6.69
2022-12-29T18:46:42.121Z,6.57
2022-12-29T18:51:43.891Z,6.49
2022-12-29T18:56:45.332Z,6.36
2022-12-29T19:01:47.064Z,6.29
2022-12-29T19:06:48.879Z,6.24
2022-12-29T19:11:51.222Z,6.25
2022-12-29T19:16:55.498Z,6.31
2022-12-29T19:21:58.476Z,6.27
2022-12-29T19:27:00.987Z,6.23
2022-12-29T19:32:02.437Z,6.27
2022-12-29T19:37:04.251Z,6.34
2022-12-29T19:42:05.802Z,6.30
2022-12-29T19:47:12.321Z,6.37
2022-12-29T19:52:14.145Z,6.24
2022-12-29T19:57:15.992Z,6.17
2022-12-29T20:02:25.839Z,6.16
2022-12-29T20:07:28.209Z,6.13
2022-12-29T20:12:34.491Z,6.09
2022-12-29T20:23:02.139Z,6.01
2022-12-29T20:28:04.773Z,5.95
2022-12-29T20:33:09.081Z,5.92
2022-12-29T20:38:12.977Z,5.91
2022-12-29T20:43:19.443Z,5.88
2022-12-29T20:48:20.976Z,5.93
2022-12-29T20:53:35.933Z,5.88
2022-12-29T20:59:00.253Z,5.82
2022-12-29T21:04:01.623Z,5.75
2022-12-29T21:09:04.033Z,5.68
2022-12-29T21:14:06.747Z,5.61
2022-12-29T21:19:08.588Z,5.59
2022-12-29T21:24:10.447Z,5.50
2022-12-29T21:29:11.936Z,5.44
2022-12-29T21:34:13.652Z,5.49
2022-12-29T21:39:16.452Z,5.44
2022-12-29T21:44:36.654Z,5.40
2022-12-29T21:49:38.305Z,5.37
2022-12-29T21:54:58.385Z,5.36
2022-12-29T22:00:18.207Z,5.18
2022-12-29T22:05:38.758Z,5.15
2022-12-29T22:11:00.613Z,5.16
2022-12-29T22:16:06.636Z,5.12
2022-12-29T22:21:10.350Z,5.08
2022-12-29T22:26:14.377Z,5.06
2022-12-29T22:31:29.101Z,5.04
2022-12-29T22:36:32.287Z,5.05
2022-12-29T22:41:35.310Z,4.96
2022-12-29T22:46:36.862Z,5.04
2022-12-29T22:51:41.275Z,5.09
2022-12-29T22:56:42.715Z,5.11
2022-12-29T23:01:44.724Z,5.18
2022-12-29T23:06:47.417Z,5.25
2022-12-29T23:11:49.767Z,5.27
2022-12-29T23:16:51.441Z,5.37
2022-12-29T23:21:52.979Z,5.39
2022-12-29T23:26:55.921Z,5.35
2022-12-29T23:31:57.496Z,5.11
2022-12-29T23:36:58.987Z,5.10
2022-12-29T23:42:00.477Z,4.90
2022-12-29T23:47:02.291Z,4.94
2022-12-29T23:52:04.916Z,4.89
2022-12-29T23:57:06.418Z,4.78
